Time;durP1;ratioP1;P1;durP2;ratioP2;P2;SDS_P1;SDS_P2;PMS_P1;PMS_P2;Temp;Humidity;BMP_temperature;BMP_pressure;BME280_temperature;BME280_humidity;BME280_pressure;Samples;Min_cycle;Max_cycle;Signal;HPM_P1;HPM_P2
2023/05/28 00:00:26;;;;;;;24.30;8.63;;;16.30;99.90;;;;;;5135712;27;20146;-89
2023/05/28 00:02:52;;;;;;;24.27;8.13;;;15.60;99.90;;;;;;5134814;27;20023;-88
2023/05/28 00:05:17;;;;;;;28.08;9.30;;;15.70;99.90;;;;;;5135356;27;20030;-89
2023/05/28 00:07:43;;;;;;;23.17;8.57;;;15.70;99.90;;;;;;5134251;27;20020;-89
2023/05/28 00:10:09;;;;;;;30.33;9.10;;;15.70;99.90;;;;;;5135222;27;20482;-90
2023/05/28 00:12:34;;;;;;;25.13;9.15;;;15.80;99.90;;;;;;5141858;27;20415;-90
2023/05/28 00:15:00;;;;;;;24.42;8.63;;;15.70;99.90;;;;;;5135094;27;20102;-89
2023/05/28 00:17:26;;;;;;;26.85;8.93;;;15.70;99.90;;;;;;5138503;27;20024;-90
2023/05/28 00:19:51;;;;;;;20.17;9.00;;;15.70;99.90;;;;;;5135649;27;20047;-90
2023/05/28 00:22:17;;;;;;;29.10;9.57;;;15.60;99.90;;;;;;5137952;27;20055;-89
2023/05/28 00:24:42;;;;;;;20.23;8.63;;;15.60;99.90;;;;;;5134078;27;20023;-89
2023/05/28 00:27:08;;;;;;;24.55;8.73;;;15.50;99.90;;;;;;5134765;27;20481;-89
2023/05/28 00:29:33;;;;;;;30.83;10.02;;;15.50;99.90;;;;;;5140478;27;20030;-89
2023/05/28 00:31:59;;;;;;;24.10;8.88;;;15.50;99.90;;;;;;5134022;27;20019;-89
2023/05/28 00:34:25;;;;;;;24.95;8.80;;;15.50;99.90;;;;;;5134384;27;20106;-89
2023/05/28 00:36:51;;;;;;;30.10;9.93;;;15.50;99.90;;;;;;5133331;27;20530;-90
2023/05/28 00:39:18;;;;;;;28.75;9.88;;;15.50;99.90;;;;;;5134314;27;20035;-90
2023/05/28 00:41:44;;;;;;;25.75;9.13;;;15.60;99.90;;;;;;5134062;27;20015;-90
2023/05/28 00:44:09;;;;;;;28.58;10.07;;;15.30;99.90;;;;;;5133640;27;20037;-90
2023/05/28 00:46:44;;;;;;;22.10;9.57;;;15.20;99.90;;;;;;5134274;27;20021;-89
2023/05/28 00:49:11;;;;;;;30.52;10.10;;;15.20;99.90;;;;;;5134807;27;20113;-89
2023/05/28 00:51:38;;;;;;;27.13;9.88;;;15.10;99.90;;;;;;5134248;27;20035;-89
2023/05/28 00:54:04;;;;;;;27.38;9.68;;;15.10;99.90;;;;;;5134227;27;20111;-90
2023/05/28 00:56:31;;;;;;;24.25;9.05;;;15.00;99.90;;;;;;5134081;28;20047;-89
2023/05/28 00:58:57;;;;;;;23.02;9.80;;;15.00;99.90;;;;;;5133056;28;20024;-89
2023/05/28 01:01:27;;;;;;;29.50;9.07;;;15.00;99.90;;;;;;5133747;28;20118;-90
2023/05/28 01:03:52;;;;;;;25.95;9.25;;;14.90;99.90;;;;;;5133974;28;20109;-89
2023/05/28 01:06:20;;;;;;;26.48;9.82;;;15.00;99.90;;;;;;5133269;28;20031;-89
2023/05/28 01:08:48;;;;;;;26.30;8.45;;;15.30;99.90;;;;;;5133663;28;20042;-89
2023/05/28 01:11:21;;;;;;;25.08;8.80;;;15.20;99.90;;;;;;5133369;28;20031;-90
2023/05/28 01:13:47;;;;;;;22.67;9.85;;;15.10;99.90;;;;;;5133182;28;20031;-90
2023/05/28 01:16:13;;;;;;;28.67;11.13;;;15.10;99.90;;;;;;5134003;28;20055;-90
2023/05/28 01:18:39;;;;;;;22.10;9.13;;;15.00;99.90;;;;;;5133001;28;20046;-90
2023/05/28 01:21:06;;;;;;;27.40;10.93;;;15.40;99.90;;;;;;5133537;28;20043;-90
2023/05/28 01:23:46;;;;;;;31.40;11.07;;;14.90;99.90;;;;;;5140851;28;20023;-90
2023/05/28 01:26:13;;;;;;;28.42;10.65;;;14.90;99.90;;;;;;5133161;28;20031;-89
2023/05/28 01:28:44;;;;;;;20.63;9.60;;;14.80;99.90;;;;;;5133501;28;20023;-89
2023/05/28 01:31:13;;;;;;;25.85;9.50;;;14.80;99.90;;;;;;5133810;28;20451;-90
2023/05/28 01:33:41;;;;;;;26.00;9.77;;;14.70;99.90;;;;;;5132028;28;20019;-89
2023/05/28 01:36:29;;;;;;;26.45;9.25;;;14.70;99.90;;;;;;5135972;27;20374;-89
2023/05/28 01:38:58;;;;;;;24.70;9.77;;;14.60;99.90;;;;;;5136199;27;20359;-90
2023/05/28 01:41:25;;;;;;;30.17;11.20;;;14.60;99.90;;;;;;5137318;27;20172;-89
2023/05/28 01:43:52;;;;;;;31.15;11.18;;;14.60;99.90;;;;;;5137374;27;20015;-89
2023/05/28 01:46:19;;;;;;;24.23;9.27;;;14.60;99.90;;;;;;5136753;27;20035;-90
2023/05/28 01:48:45;;;;;;;21.25;10.00;;;14.60;99.90;;;;;;5147942;27;20045;-90
2023/05/28 01:51:15;;;;;;;28.00;9.13;;;14.70;99.90;;;;;;5158011;27;20465;-90
2023/05/28 01:53:40;;;;;;;23.52;9.38;;;14.70;99.90;;;;;;5157269;27;20027;-90
2023/05/28 01:56:06;;;;;;;18.90;8.93;;;14.60;99.90;;;;;;5155160;27;20023;-89
2023/05/28 01:58:32;;;;;;;23.38;9.05;;;14.80;99.90;;;;;;5136949;27;20088;-89
2023/05/28 02:01:27;;;;;;;19.48;9.05;;;14.80;99.90;;;;;;5136455;27;20420;-90
2023/05/28 02:03:53;;;;;;;22.50;9.15;;;14.80;99.90;;;;;;5121432;27;20122;-89
2023/05/28 02:06:19;;;;;;;22.25;9.85;;;14.70;99.90;;;;;;5140521;27;20109;-89
2023/05/28 02:08:45;;;;;;;18.92;8.90;;;14.80;99.90;;;;;;5136434;27;20063;-88
2023/05/28 02:11:10;;;;;;;22.48;8.88;;;14.70;99.90;;;;;;5136642;27;20051;-88
2023/05/28 02:13:36;;;;;;;23.00;9.63;;;14.70;99.90;;;;;;5136588;27;20072;-89
2023/05/28 02:16:01;;;;;;;26.73;10.50;;;14.70;99.90;;;;;;5130713;27;20066;-89
2023/05/28 02:18:27;;;;;;;26.00;10.23;;;14.60;99.90;;;;;;5140254;27;20023;-88
2023/05/28 02:20:53;;;;;;;26.83;9.73;;;14.60;99.90;;;;;;5135679;27;20406;-89
2023/05/28 02:23:18;;;;;;;26.77;10.35;;;14.60;99.90;;;;;;5135662;27;20023;-89
2023/05/28 02:25:44;;;;;;;26.83;9.82;;;14.50;99.90;;;;;;5135862;27;20170;-88
2023/05/28 02:28:10;;;;;;;22.75;10.02;;;14.40;99.90;;;;;;5136338;27;20028;-89
2023/05/28 02:30:36;;;;;;;24.13;10.23;;;14.40;99.90;;;;;;5135344;27;20067;-89
2023/05/28 02:33:01;;;;;;;24.35;9.70;;;14.30;99.90;;;;;;5136261;27;20027;-90
2023/05/28 02:35:27;;;;;;;30.15;9.70;;;14.30;99.90;;;;;;5135990;27;20023;-89
2023/05/28 02:37:52;;;;;;;25.88;10.27;;;14.30;99.90;;;;;;5135897;27;20034;-89
2023/05/28 02:40:18;;;;;;;25.50;9.48;;;14.30;99.90;;;;;;5136358;27;20534;-90
2023/05/28 02:42:43;;;;;;;30.52;10.15;;;14.20;99.90;;;;;;5135314;27;20840;-89
2023/05/28 02:45:09;;;;;;;27.05;10.25;;;14.50;99.90;;;;;;5135915;27;20059;-89
2023/05/28 02:47:35;;;;;;;25.75;10.13;;;14.30;99.90;;;;;;5135092;27;20030;-88
2023/05/28 02:50:00;;;;;;;24.95;9.57;;;14.30;99.90;;;;;;5135606;27;20386;-89
2023/05/28 02:52:26;;;;;;;27.52;10.20;;;14.20;99.90;;;;;;5136245;27;20027;-89
2023/05/28 02:54:51;;;;;;;28.20;10.75;;;14.20;99.90;;;;;;5135783;27;20031;-90
2023/05/28 02:57:17;;;;;;;21.95;9.85;;;14.20;99.90;;;;;;5135657;27;20034;-89
2023/05/28 02:59:43;;;;;;;28.25;10.18;;;14.20;99.90;;;;;;5135400;27;20100;-89
2023/05/28 03:02:08;;;;;;;29.08;10.02;;;14.20;99.90;;;;;;5136009;27;20054;-89
2023/05/28 03:04:35;;;;;;;25.80;10.93;;;14.20;99.90;;;;;;5135434;27;20539;-89
2023/05/28 03:07:01;;;;;;;23.08;9.68;;;14.30;99.90;;;;;;5139228;27;20019;-89
2023/05/28 03:09:27;;;;;;;24.80;10.38;;;14.30;99.90;;;;;;5139101;27;20497;-90
2023/05/28 03:11:52;;;;;;;22.52;9.90;;;14.20;99.90;;;;;;5137710;27;20042;-89
2023/05/28 03:14:18;;;;;;;26.27;9.43;;;14.30;99.90;;;;;;5138635;27;20440;-89
2023/05/28 03:16:43;;;;;;;20.42;9.90;;;14.30;99.90;;;;;;5136004;27;20034;-89
2023/05/28 03:19:09;;;;;;;28.83;10.35;;;14.30;99.90;;;;;;5134645;27;20030;-89
2023/05/28 03:21:35;;;;;;;21.58;9.32;;;14.30;99.90;;;;;;5134865;27;20043;-89
2023/05/28 03:24:00;;;;;;;22.50;10.20;;;14.20;99.90;;;;;;5135457;27;20079;-90
2023/05/28 03:26:26;;;;;;;28.15;10.48;;;14.30;99.90;;;;;;5134746;27;20026;-89
2023/05/28 03:28:52;;;;;;;21.85;10.23;;;14.30;99.90;;;;;;5135098;27;20034;-89
2023/05/28 03:31:19;;;;;;;29.90;9.68;;;14.30;99.90;;;;;;5135610;27;20411;-89
2023/05/28 03:33:44;;;;;;;20.83;9.55;;;14.30;99.90;;;;;;5134353;27;20115;-89
2023/05/28 03:36:10;;;;;;;24.92;10.30;;;14.30;99.90;;;;;;5135427;27;20023;-89
2023/05/28 03:38:35;;;;;;;27.67;10.52;;;14.40;99.90;;;;;;5134830;27;20068;-87
2023/05/28 03:41:01;;;;;;;22.33;9.77;;;14.40;99.90;;;;;;5134258;27;20038;-88
2023/05/28 03:43:27;;;;;;;25.58;10.38;;;14.40;99.90;;;;;;5135337;27;20031;-89
2023/05/28 03:45:52;;;;;;;20.60;10.13;;;14.30;99.90;;;;;;5134422;27;20531;-89
2023/05/28 03:48:18;;;;;;;24.80;11.20;;;14.30;99.90;;;;;;5134486;27;20102;-89
2023/05/28 03:50:43;;;;;;;25.88;10.63;;;14.30;99.90;;;;;;5134768;27;20474;-90
2023/05/28 03:53:09;;;;;;;21.10;9.80;;;14.30;99.90;;;;;;5134460;27;20514;-90
2023/05/28 03:55:35;;;;;;;22.45;9.73;;;14.20;99.90;;;;;;5134783;27;20102;-89
2023/05/28 03:58:02;;;;;;;19.35;9.85;;;14.30;99.90;;;;;;5139937;27;20027;-89
2023/05/28 04:00:27;;;;;;;26.15;10.43;;;14.20;99.90;;;;;;5134383;27;20138;-89
2023/05/28 04:02:53;;;;;;;19.20;9.57;;;14.30;99.90;;;;;;5133810;27;20027;-90
2023/05/28 04:05:18;;;;;;;30.65;10.32;;;14.30;99.90;;;;;;5142764;27;20103;-89
2023/05/28 04:07:44;;;;;;;27.77;10.00;;;14.30;99.90;;;;;;5133961;27;20057;-89
2023/05/28 04:10:10;;;;;;;23.88;9.60;;;14.20;99.90;;;;;;5135050;27;20046;-90
2023/05/28 04:12:35;;;;;;;24.60;11.05;;;14.10;99.90;;;;;;5133494;27;20434;-90
2023/05/28 04:15:02;;;;;;;27.65;10.05;;;14.10;99.90;;;;;;5133989;27;20026;-90
2023/05/28 04:17:28;;;;;;;23.48;10.13;;;14.00;99.90;;;;;;5133839;27;20051;-88
2023/05/28 04:19:54;;;;;;;23.33;10.27;;;13.90;99.90;;;;;;5134181;27;20078;-92
2023/05/28 04:22:20;;;;;;;24.45;10.48;;;13.80;99.90;;;;;;5134536;27;20043;-91
2023/05/28 04:24:47;;;;;;;32.80;10.20;;;13.90;99.90;;;;;;5135004;27;20066;-92
2023/05/28 04:27:13;;;;;;;28.63;9.98;;;13.90;99.90;;;;;;5134589;27;20019;-90
2023/05/28 04:29:38;;;;;;;26.30;9.05;;;14.00;99.90;;;;;;5134259;27;20030;-91
2023/05/28 04:32:08;;;;;;;24.92;10.07;;;14.00;99.90;;;;;;5134737;27;20027;-91
2023/05/28 04:34:34;;;;;;;19.42;9.27;;;14.10;99.90;;;;;;5134140;27;20114;-92
2023/05/28 04:36:59;;;;;;;27.85;10.45;;;14.10;99.90;;;;;;5133722;27;20058;-90
2023/05/28 04:39:26;;;;;;;28.15;9.65;;;14.10;99.90;;;;;;5133292;27;20035;-91
2023/05/28 04:41:53;;;;;;;19.73;8.88;;;14.00;99.90;;;;;;5124750;27;20467;-91
2023/05/28 04:44:19;;;;;;;26.92;9.80;;;14.00;99.90;;;;;;5123609;27;20479;-91
2023/05/28 04:46:45;;;;;;;25.25;10.07;;;13.90;99.90;;;;;;5120279;27;20023;-92
2023/05/28 04:49:12;;;;;;;22.45;9.75;;;14.00;99.90;;;;;;5125722;27;20031;-91
2023/05/28 04:51:38;;;;;;;25.77;10.25;;;14.00;99.90;;;;;;5124191;27;20080;-91
2023/05/28 04:54:04;;;;;;;22.52;9.55;;;14.10;99.90;;;;;;5133221;27;20026;-92
2023/05/28 04:56:29;;;;;;;26.42;9.85;;;14.20;99.90;;;;;;5133517;27;20500;-92
2023/05/28 04:58:55;;;;;;;23.17;10.38;;;14.20;99.90;;;;;;5145234;28;20029;-91
2023/05/28 05:01:22;;;;;;;29.42;9.30;;;14.20;99.90;;;;;;5137267;28;20019;-91
2023/05/28 05:03:48;;;;;;;21.13;10.18;;;14.40;99.90;;;;;;5121882;28;20095;-92
2023/05/28 05:06:13;;;;;;;25.23;9.88;;;14.20;99.90;;;;;;5125485;28;20043;-91
2023/05/28 05:08:39;;;;;;;24.13;9.15;;;14.70;99.90;;;;;;5134120;28;20086;-92
2023/05/28 05:11:06;;;;;;;23.75;9.40;;;14.30;99.90;;;;;;5136234;27;20022;-92
2023/05/28 05:13:32;;;;;;;24.77;11.15;;;14.30;99.90;;;;;;5138323;27;20024;-92
2023/05/28 05:15:57;;;;;;;22.98;9.43;;;14.30;99.90;;;;;;5138719;27;20034;-91
2023/05/28 05:18:23;;;;;;;25.02;9.98;;;14.20;99.90;;;;;;5137896;27;20024;-90
2023/05/28 05:20:48;;;;;;;23.48;9.35;;;14.60;99.90;;;;;;5138087;27;20043;-90
2023/05/28 05:23:14;;;;;;;18.70;9.80;;;14.20;99.90;;;;;;5136925;27;20015;-91
2023/05/28 05:25:40;;;;;;;26.02;9.93;;;14.20;99.90;;;;;;5137585;27;20019;-91
2023/05/28 05:28:05;;;;;;;26.48;9.65;;;14.20;99.90;;;;;;5138307;27;20023;-91
2023/05/28 05:30:31;;;;;;;20.45;9.55;;;14.10;99.90;;;;;;5138395;27;20033;-91
2023/05/28 05:32:56;;;;;;;28.92;10.13;;;14.10;99.90;;;;;;5137443;27;20489;-91
2023/05/28 05:35:23;;;;;;;21.90;11.07;;;14.10;99.90;;;;;;5137894;27;20054;-90
2023/05/28 05:37:48;;;;;;;23.58;9.30;;;14.20;99.90;;;;;;5133799;27;20098;-91
2023/05/28 05:40:14;;;;;;;24.55;10.63;;;14.20;99.90;;;;;;5116558;28;20447;-92
2023/05/28 05:42:39;;;;;;;23.55;9.85;;;14.50;99.90;;;;;;5117691;28;20038;-90
2023/05/28 05:45:06;;;;;;;22.30;9.98;;;14.20;99.90;;;;;;5117571;28;20071;-91
2023/05/28 05:47:31;;;;;;;22.20;9.60;;;14.40;99.90;;;;;;5116719;28;20020;-91
2023/05/28 05:49:57;;;;;;;20.42;10.27;;;14.40;99.90;;;;;;5117269;28;20038;-90
2023/05/28 05:52:23;;;;;;;25.60;10.07;;;14.50;99.90;;;;;;5127983;28;20106;-91
2023/05/28 05:54:49;;;;;;;26.33;9.88;;;14.50;99.90;;;;;;5123238;28;20051;-91
2023/05/28 05:57:14;;;;;;;19.70;9.00;;;14.50;99.90;;;;;;5116507;28;20051;-91
2023/05/28 05:59:40;;;;;;;23.60;10.45;;;14.50;99.90;;;;;;5116815;28;20146;-92
2023/05/28 06:02:06;;;;;;;26.20;10.52;;;14.50;99.90;;;;;;5118638;28;20020;-90
2023/05/28 06:04:33;;;;;;;17.17;10.20;;;14.50;99.90;;;;;;5131837;27;20027;-91
2023/05/28 06:07:03;;;;;;;20.92;9.57;;;14.60;99.90;;;;;;5145629;27;20035;-91
2023/05/28 06:09:29;;;;;;;18.13;10.13;;;14.60;99.90;;;;;;5145315;27;20027;-91
2023/05/28 06:11:55;;;;;;;25.15;10.55;;;14.70;99.90;;;;;;5144143;27;20058;-91
2023/05/28 06:14:21;;;;;;;25.83;10.25;;;14.70;99.90;;;;;;5137530;27;20027;-91
2023/05/28 06:16:47;;;;;;;22.48;9.88;;;14.80;99.90;;;;;;5133933;27;20023;-90
2023/05/28 06:19:13;;;;;;;20.90;9.88;;;14.60;99.90;;;;;;5132741;27;20467;-90
2023/05/28 06:21:38;;;;;;;16.90;9.50;;;14.90;99.90;;;;;;5134262;27;20043;-91
2023/05/28 06:24:04;;;;;;;23.35;10.43;;;14.90;99.90;;;;;;5130543;27;20011;-90
2023/05/28 06:26:29;;;;;;;22.65;10.10;;;14.90;99.90;;;;;;5136544;27;20493;-91
2023/05/28 06:28:55;;;;;;;25.77;9.25;;;15.00;99.90;;;;;;5136070;27;20023;-90
2023/05/28 06:31:20;;;;;;;18.70;9.98;;;15.00;99.90;;;;;;5136494;27;20019;-89
2023/05/28 06:33:46;;;;;;;23.88;10.00;;;15.00;99.90;;;;;;5135197;27;20019;-89
2023/05/28 06:36:12;;;;;;;25.35;9.93;;;15.10;99.90;;;;;;5135717;27;20084;-89
2023/05/28 06:38:38;;;;;;;20.83;9.10;;;15.10;99.90;;;;;;5135781;27;20046;-89
2023/05/28 06:41:03;;;;;;;23.33;10.60;;;15.10;99.90;;;;;;5135966;27;20517;-88
2023/05/28 06:43:29;;;;;;;28.95;9.95;;;15.10;99.90;;;;;;5135206;27;20084;-89
2023/05/28 06:45:54;;;;;;;25.65;9.98;;;15.00;99.90;;;;;;5137920;27;20079;-89
2023/05/28 06:48:20;;;;;;;23.02;10.38;;;15.20;99.90;;;;;;5139454;27;20030;-89
2023/05/28 06:50:46;;;;;;;27.00;9.80;;;15.20;99.90;;;;;;5134808;27;20444;-89
2023/05/28 06:53:12;;;;;;;18.67;9.00;;;15.30;99.90;;;;;;5136392;27;20075;-91
2023/05/28 06:55:37;;;;;;;22.30;9.10;;;15.30;99.90;;;;;;5135944;27;20386;-89
2023/05/28 06:58:03;;;;;;;23.30;9.77;;;15.30;99.90;;;;;;5135852;27;20046;-91
2023/05/28 07:00:29;;;;;;;22.15;9.13;;;15.30;99.90;;;;;;5136509;27;20031;-91
2023/05/28 07:02:54;;;;;;;18.75;8.98;;;15.40;99.90;;;;;;5135358;27;20023;-89
2023/05/28 07:05:20;;;;;;;14.82;9.35;;;16.10;99.90;;;;;;5136540;27;20030;-91
2023/05/28 07:07:46;;;;;;;22.60;9.20;;;15.50;99.90;;;;;;5136021;27;20076;-90
2023/05/28 07:10:11;;;;;;;24.35;9.60;;;15.50;99.90;;;;;;5134738;27;20160;-89
2023/05/28 07:12:37;;;;;;;16.83;9.27;;;15.50;99.90;;;;;;5135414;27;20054;-91
2023/05/28 07:15:04;;;;;;;24.23;10.63;;;15.60;99.90;;;;;;5136279;27;20035;-91
2023/05/28 07:17:29;;;;;;;23.15;9.50;;;15.60;99.90;;;;;;5135467;27;20424;-92
2023/05/28 07:19:55;;;;;;;21.55;10.05;;;15.60;99.90;;;;;;5135434;27;20051;-90
2023/05/28 07:22:20;;;;;;;16.05;8.68;;;15.70;99.90;;;;;;5135514;27;20513;-89
2023/05/28 07:24:46;;;;;;;21.48;9.90;;;15.70;99.90;;;;;;5135231;27;20032;-90
2023/05/28 07:27:11;;;;;;;20.00;9.73;;;15.90;99.90;;;;;;5135686;27;20077;-90
2023/05/28 07:29:37;;;;;;;22.42;8.55;;;15.70;99.90;;;;;;5130532;27;20019;-88
2023/05/28 07:32:03;;;;;;;22.92;9.52;;;15.80;99.90;;;;;;5119185;27;20074;-90
2023/05/28 07:34:28;;;;;;;24.95;9.30;;;15.80;99.90;;;;;;5113861;28;20508;-84
2023/05/28 07:36:54;;;;;;;28.30;9.93;;;15.80;99.90;;;;;;5123444;27;20012;-87
2023/05/28 07:39:19;;;;;;;19.35;8.38;;;15.90;99.90;;;;;;5123619;27;20055;-83
2023/05/28 07:41:45;;;;;;;23.35;9.65;;;15.90;99.90;;;;;;5134152;27;20084;-87
2023/05/28 07:44:11;;;;;;;20.13;8.13;;;16.00;99.90;;;;;;5133860;27;20482;-86
2023/05/28 07:46:37;;;;;;;18.90;8.68;;;16.00;99.90;;;;;;5133119;27;20083;-87
2023/05/28 07:49:02;;;;;;;23.13;9.48;;;16.10;99.90;;;;;;5133821;27;20383;-87
2023/05/28 07:51:28;;;;;;;19.33;9.23;;;16.90;99.90;;;;;;5133907;27;20034;-87
2023/05/28 07:53:53;;;;;;;21.52;8.88;;;16.20;99.90;;;;;;5132998;27;20470;-87
2023/05/28 07:56:20;;;;;;;23.00;9.88;;;16.20;99.90;;;;;;5134251;27;20541;-89
2023/05/28 07:58:46;;;;;;;20.42;9.05;;;16.20;99.90;;;;;;5129034;27;20019;-88
2023/05/28 08:01:12;;;;;;;24.95;10.10;;;16.30;99.90;;;;;;5129103;27;20486;-88
2023/05/28 08:03:37;;;;;;;18.73;9.50;;;16.30;99.90;;;;;;5133663;27;20023;-88
2023/05/28 08:06:04;;;;;;;31.92;10.32;;;16.40;99.90;;;;;;5133179;27;20031;-88
2023/05/28 08:08:29;;;;;;;17.88;9.73;;;16.50;99.90;;;;;;5134000;27;20030;-85
2023/05/28 08:10:55;;;;;;;23.60;9.73;;;16.40;99.90;;;;;;5132969;27;20027;-86
2023/05/28 08:13:20;;;;;;;29.67;10.77;;;16.60;99.90;;;;;;5132850;27;20042;-86
2023/05/28 08:15:46;;;;;;;17.92;8.77;;;16.60;99.90;;;;;;5133139;27;20029;-84
2023/05/28 08:18:12;;;;;;;21.55;8.98;;;16.70;99.90;;;;;;5123855;27;20510;-87
2023/05/28 08:20:38;;;;;;;22.98;9.65;;;16.70;99.90;;;;;;5129800;27;20093;-86
2023/05/28 08:23:04;;;;;;;21.00;8.70;;;16.80;99.90;;;;;;5131506;27;20058;-88
2023/05/28 08:25:30;;;;;;;17.30;9.05;;;16.80;99.90;;;;;;5133849;27;20047;-87
2023/05/28 08:27:55;;;;;;;19.70;9.45;;;17.10;99.90;;;;;;5150185;27;20018;-86
2023/05/28 08:30:21;;;;;;;22.98;8.70;;;16.90;99.90;;;;;;5150517;27;20083;-86
2023/05/28 08:32:47;;;;;;;21.00;8.80;;;17.00;99.90;;;;;;5144131;27;20598;-86
2023/05/28 08:35:13;;;;;;;24.13;9.05;;;17.00;99.90;;;;;;5143607;27;20026;-84
2023/05/28 08:37:38;;;;;;;19.75;8.50;;;17.00;99.90;;;;;;5151466;27;20015;-85
2023/05/28 08:40:08;;;;;;;17.80;7.75;;;17.00;99.90;;;;;;5135424;27;20123;-86
2023/05/28 08:42:37;;;;;;;19.52;8.68;;;17.10;99.90;;;;;;5134944;27;20068;-85
2023/05/28 08:45:03;;;;;;;11.50;6.32;;;17.20;99.90;;;;;;5131561;27;20059;-86
2023/05/28 08:47:33;;;;;;;16.38;6.68;;;17.20;99.90;;;;;;5131051;27;20023;-85
2023/05/28 08:50:02;;;;;;;22.05;7.60;;;17.30;99.90;;;;;;5127017;27;20080;-85
2023/05/28 08:52:32;;;;;;;17.60;7.27;;;17.30;99.90;;;;;;5131152;27;20455;-87
2023/05/28 08:54:58;;;;;;;14.82;7.15;;;17.40;99.90;;;;;;5131569;27;20391;-86
2023/05/28 08:57:25;;;;;;;16.65;7.85;;;17.40;99.90;;;;;;5130382;27;20011;-85
2023/05/28 08:59:52;;;;;;;21.17;7.63;;;18.10;99.90;;;;;;5131222;28;20035;-84
2023/05/28 09:02:20;;;;;;;18.67;7.07;;;17.20;99.90;;;;;;5130643;28;20034;-84
2023/05/28 09:04:46;;;;;;;15.52;7.25;;;17.50;99.90;;;;;;5125092;28;20114;-87
2023/05/28 09:07:12;;;;;;;18.55;6.97;;;17.40;99.90;;;;;;5131741;28;20119;-87
2023/05/28 09:09:39;;;;;;;21.67;6.50;;;17.60;99.90;;;;;;5130381;28;20440;-85
2023/05/28 09:12:09;;;;;;;14.88;6.88;;;17.70;99.90;;;;;;5131501;28;20102;-88
2023/05/28 09:14:40;;;;;;;16.80;7.15;;;17.60;99.90;;;;;;5130832;28;20023;-88
2023/05/28 09:17:05;;;;;;;;;;;17.70;99.90;;;;;;5130810;28;20035;-86
2023/05/28 09:19:31;;;;;;;16.42;7.53;;;17.80;99.90;;;;;;5131229;28;19915;-89
2023/05/28 09:21:59;;;;;;;16.13;6.68;;;17.90;99.90;;;;;;5132452;28;20035;-88
2023/05/28 09:24:25;;;;;;;12.80;5.65;;;18.50;99.90;;;;;;5130875;28;20069;-88
2023/05/28 09:26:57;;;;;;;19.65;6.50;;;18.90;99.90;;;;;;5133149;28;20028;-87
2023/05/28 09:29:26;;;;;;;16.00;6.80;;;18.00;99.90;;;;;;5127569;28;20390;-90
2023/05/28 09:31:59;;;;;;;17.35;7.40;;;18.10;99.90;;;;;;5122123;28;20019;-89
2023/05/28 09:34:31;;;;;;;16.10;7.13;;;18.10;99.90;;;;;;5125501;28;20099;-89
2023/05/28 09:37:04;;;;;;;11.45;6.05;;;18.20;99.90;;;;;;5130848;28;20030;-91
2023/05/28 09:39:31;;;;;;;16.85;7.57;;;18.20;99.90;;;;;;5130697;28;20036;-90
2023/05/28 09:42:03;;;;;;;15.95;7.18;;;18.20;99.90;;;;;;5131210;28;20406;-87
2023/05/28 09:44:33;;;;;;;23.85;6.60;;;18.20;99.90;;;;;;5130975;28;20019;-88
2023/05/28 09:46:58;;;;;;;13.73;6.97;;;18.30;99.90;;;;;;5126918;28;20023;-89
2023/05/28 09:49:25;;;;;;;25.55;7.30;;;18.30;99.90;;;;;;5128767;27;20030;-92
2023/05/28 09:51:55;;;;;;;19.95;6.90;;;18.40;99.90;;;;;;5111134;28;20032;-87
2023/05/28 09:54:22;;;;;;;21.00;6.28;;;18.40;99.90;;;;;;5128030;27;20023;-86
2023/05/28 09:56:51;;;;;;;13.35;6.55;;;18.40;99.90;;;;;;5153491;27;20102;-87
2023/05/28 09:59:18;;;;;;;18.80;7.35;;;18.40;99.90;;;;;;5157122;27;20023;-88
2023/05/28 10:02:09;;;;;;;13.65;6.43;;;18.50;99.90;;;;;;5156656;27;20045;-88
2023/05/28 10:04:36;;;;;;;15.45;6.50;;;18.50;99.90;;;;;;5156795;27;20026;-83
2023/05/28 10:07:05;;;;;;;20.17;6.07;;;18.60;99.90;;;;;;5156275;27;20048;-88
2023/05/28 10:09:32;;;;;;;14.07;7.47;;;18.90;99.90;;;;;;5157272;27;20097;-88
2023/05/28 10:12:14;;;;;;;20.27;7.57;;;18.70;99.90;;;;;;5138836;27;20023;-89
2023/05/28 10:14:39;;;;;;;17.63;7.60;;;18.70;99.90;;;;;;5136026;27;20015;-89
2023/05/28 10:17:08;;;;;;;13.65;6.53;;;18.70;99.90;;;;;;5136956;27;20561;-90
2023/05/28 10:19:35;;;;;;;17.13;6.50;;;18.80;99.90;;;;;;5136824;27;20028;-89
2023/05/28 10:22:01;;;;;;;16.55;6.80;;;18.80;99.90;;;;;;5145376;27;20039;-89
2023/05/28 10:24:26;;;;;;;18.00;7.30;;;18.80;99.90;;;;;;5137281;27;20447;-91
2023/05/28 10:26:53;;;;;;;16.80;7.50;;;18.70;99.90;;;;;;5136280;27;20027;-90
2023/05/28 10:29:20;;;;;;;18.67;8.07;;;18.70;99.90;;;;;;5136864;27;20100;-90
2023/05/28 10:31:57;;;;;;;16.45;7.25;;;18.70;99.90;;;;;;5136194;27;20027;-90
2023/05/28 10:34:32;;;;;;;16.80;8.30;;;18.70;99.90;;;;;;5136638;27;20019;-91
2023/05/28 10:37:02;;;;;;;21.67;7.75;;;18.80;99.90;;;;;;5130670;27;20038;-91
2023/05/28 10:39:43;;;;;;;18.65;8.27;;;18.70;99.90;;;;;;5128455;27;20029;-91
2023/05/28 10:42:13;;;;;;;20.27;8.40;;;18.90;99.90;;;;;;5126174;27;20039;-90
2023/05/28 10:45:03;;;;;;;17.88;7.85;;;18.90;99.90;;;;;;5128411;27;20092;-89
2023/05/28 10:47:39;;;;;;;21.67;8.88;;;18.90;99.90;;;;;;5129345;27;20034;-90
2023/05/28 10:50:07;;;;;;;22.88;8.23;;;19.00;99.90;;;;;;5128283;27;20023;-90
2023/05/28 10:52:33;;;;;;;17.60;7.55;;;19.00;99.90;;;;;;5130411;27;20130;-91
2023/05/28 10:55:03;;;;;;;16.13;7.68;;;19.30;99.90;;;;;;5125441;27;20098;-88
2023/05/28 10:57:39;;;;;;;16.40;7.30;;;19.00;99.90;;;;;;5115235;28;20039;-89
2023/05/28 11:00:10;;;;;;;17.63;7.32;;;18.90;99.90;;;;;;5115346;28;20040;-91
2023/05/28 11:02:35;;;;;;;16.00;8.20;;;19.00;99.90;;;;;;5129608;27;20366;-89
2023/05/28 11:05:04;;;;;;;18.85;8.68;;;19.00;99.90;;;;;;5135432;27;20027;-89
2023/05/28 11:07:35;;;;;;;23.60;8.73;;;19.10;99.90;;;;;;5134999;27;20080;-89
2023/05/28 11:10:01;;;;;;;22.73;8.93;;;19.10;99.90;;;;;;5135347;27;20027;-89
2023/05/28 11:12:29;;;;;;;21.73;8.52;;;19.10;99.90;;;;;;5136031;27;20106;-89
2023/05/28 11:14:55;;;;;;;18.17;8.77;;;19.10;99.90;;;;;;5143835;27;20019;-88
2023/05/28 11:17:21;;;;;;;18.42;8.50;;;19.30;99.90;;;;;;5134629;27;20049;-89
2023/05/28 11:19:49;;;;;;;19.98;8.90;;;19.10;99.90;;;;;;5134734;27;20111;-90
2023/05/28 11:22:16;;;;;;;18.48;7.97;;;19.20;99.90;;;;;;5135027;27;20027;-89
2023/05/28 11:25:08;;;;;;;15.68;8.32;;;19.10;99.90;;;;;;5134734;27;20114;-89
2023/05/28 11:27:35;;;;;;;20.42;9.10;;;19.20;99.90;;;;;;5134974;27;20023;-90
2023/05/28 11:30:08;;;;;;;13.35;8.60;;;19.10;99.90;;;;;;5134313;27;20027;-90
2023/05/28 11:32:34;;;;;;;20.42;9.20;;;19.20;99.90;;;;;;5125888;27;20038;-89
2023/05/28 11:35:00;;;;;;;19.05;8.63;;;19.50;99.90;;;;;;5131601;27;20148;-88
2023/05/28 11:37:33;;;;;;;14.27;8.25;;;19.70;99.90;;;;;;5133963;27;20060;-88
2023/05/28 11:40:00;;;;;;;16.60;8.23;;;19.30;99.90;;;;;;5134810;27;20031;-88
2023/05/28 11:42:29;;;;;;;17.77;9.60;;;19.30;99.90;;;;;;5134757;27;20482;-88
2023/05/28 11:44:56;;;;;;;17.27;8.68;;;19.70;99.90;;;;;;5133586;27;20071;-88
2023/05/28 11:47:23;;;;;;;22.70;9.38;;;19.40;99.90;;;;;;5134596;27;20153;-89
2023/05/28 11:49:48;;;;;;;13.95;8.57;;;19.40;99.90;;;;;;5134678;27;20031;-88
2023/05/28 11:52:19;;;;;;;17.90;8.80;;;19.40;99.90;;;;;;5134083;27;20088;-89
2023/05/28 11:54:47;;;;;;;18.00;9.43;;;20.20;99.90;;;;;;5134433;27;20539;-87
2023/05/28 11:57:23;;;;;;;18.50;8.13;;;19.50;99.90;;;;;;5134531;27;20027;-88
2023/05/28 12:00:10;;;;;;;19.40;8.63;;;20.20;99.90;;;;;;5133571;27;20172;-87
2023/05/28 12:02:47;;;;;;;19.10;8.50;;;19.50;99.90;;;;;;5133492;27;20111;-88
2023/05/28 12:05:15;;;;;;;21.83;9.35;;;19.60;99.90;;;;;;5133350;27;20029;-87
2023/05/28 12:07:48;;;;;;;15.60;8.43;;;19.70;99.90;;;;;;5138767;27;20067;-89
2023/05/28 12:10:16;;;;;;;17.73;9.43;;;19.70;99.90;;;;;;5135337;27;20023;-89
2023/05/28 12:12:47;;;;;;;18.17;8.50;;;20.10;99.90;;;;;;5133540;27;20152;-87
2023/05/28 12:15:13;;;;;;;21.88;8.32;;;19.80;99.90;;;;;;5131875;27;20475;-87
2023/05/28 12:17:41;;;;;;;17.92;8.43;;;19.70;99.90;;;;;;5132590;27;20027;-87
2023/05/28 12:20:28;;;;;;;18.55;8.35;;;19.80;99.90;;;;;;5128851;27;20039;-88
2023/05/28 12:23:06;;;;;;;14.63;8.02;;;20.00;99.90;;;;;;5131182;27;20030;-88
2023/05/28 12:25:49;;;;;;;16.58;8.65;;;19.90;99.90;;;;;;5131331;27;20025;-86
2023/05/28 12:28:16;;;;;;;20.27;8.07;;;19.90;99.90;;;;;;5131056;27;20015;-87
2023/05/28 12:30:44;;;;;;;13.98;7.30;;;19.90;99.90;;;;;;5132567;27;20087;-87
2023/05/28 12:33:11;;;;;;;21.33;8.27;;;20.00;99.90;;;;;;5133583;27;20406;-87
2023/05/28 12:35:36;;;;;;;19.17;7.45;;;20.00;99.90;;;;;;5131816;27;20057;-87